sensor_id;sensor_type;location;lat;lon;timestamp;P1;durP1;ratioP1;P2;durP2;ratioP2
27666;SDS011;15074;50.940;5.282;2022-07-23T00:01:22;7.05;;;6.35;;
27666;SDS011;15074;50.940;5.282;2022-07-23T00:03:48;8.00;;;7.20;;
27666;SDS011;15074;50.940;5.282;2022-07-23T00:06:14;7.18;;;6.47;;
27666;SDS011;15074;50.940;5.282;2022-07-23T00:08:41;11.52;;;7.07;;
27666;SDS011;15074;50.940;5.282;2022-07-23T00:11:07;7.43;;;6.68;;
27666;SDS011;15074;50.940;5.282;2022-07-23T00:13:32;7.82;;;6.82;;
27666;SDS011;15074;50.940;5.282;2022-07-23T00:15:58;8.20;;;7.40;;
27666;SDS011;15074;50.940;5.282;2022-07-23T00:18:24;7.82;;;7.13;;
27666;SDS011;15074;50.940;5.282;2022-07-23T00:20:49;9.13;;;6.95;;
27666;SDS011;15074;50.940;5.282;2022-07-23T00:23:16;7.85;;;7.15;;
27666;SDS011;15074;50.940;5.282;2022-07-23T00:25:42;9.30;;;7.25;;
27666;SDS011;15074;50.940;5.282;2022-07-23T00:28:07;8.05;;;7.35;;
27666;SDS011;15074;50.940;5.282;2022-07-23T00:30:34;9.25;;;7.65;;
27666;SDS011;15074;50.940;5.282;2022-07-23T00:33:09;8.45;;;7.63;;
27666;SDS011;15074;50.940;5.282;2022-07-23T00:35:39;9.23;;;6.95;;
27666;SDS011;15074;50.940;5.282;2022-07-23T00:38:06;9.10;;;7.75;;
27666;SDS011;15074;50.940;5.282;2022-07-23T00:40:34;8.07;;;7.28;;
27666;SDS011;15074;50.940;5.282;2022-07-23T00:43:00;11.27;;;7.30;;
27666;SDS011;15074;50.940;5.282;2022-07-23T00:45:26;8.10;;;7.35;;
27666;SDS011;15074;50.940;5.282;2022-07-23T00:47:52;8.05;;;7.38;;
27666;SDS011;15074;50.940;5.282;2022-07-23T00:50:17;8.15;;;7.28;;
27666;SDS011;15074;50.940;5.282;2022-07-23T00:52:43;9.15;;;7.57;;
27666;SDS011;15074;50.940;5.282;2022-07-23T00:55:10;8.35;;;7.28;;
27666;SDS011;15074;50.940;5.282;2022-07-23T00:57:38;7.60;;;6.90;;
27666;SDS011;15074;50.940;5.282;2022-07-23T01:00:05;7.35;;;6.65;;
27666;SDS011;15074;50.940;5.282;2022-07-23T01:02:33;8.65;;;6.78;;
27666;SDS011;15074;50.940;5.282;2022-07-23T01:04:59;8.95;;;8.05;;
27666;SDS011;15074;50.940;5.282;2022-07-23T01:07:24;12.02;;;7.63;;
27666;SDS011;15074;50.940;5.282;2022-07-23T01:09:50;8.05;;;7.35;;
27666;SDS011;15074;50.940;5.282;2022-07-23T01:12:16;10.05;;;7.75;;
27666;SDS011;15074;50.940;5.282;2022-07-23T01:14:42;9.38;;;8.05;;
27666;SDS011;15074;50.940;5.282;2022-07-23T01:17:08;7.93;;;7.18;;
27666;SDS011;15074;50.940;5.282;2022-07-23T01:19:33;8.73;;;7.75;;
27666;SDS011;15074;50.940;5.282;2022-07-23T01:22:00;7.70;;;7.00;;
27666;SDS011;15074;50.940;5.282;2022-07-23T01:24:27;11.32;;;7.57;;
27666;SDS011;15074;50.940;5.282;2022-07-23T01:26:53;8.02;;;7.32;;
27666;SDS011;15074;50.940;5.282;2022-07-23T01:29:19;8.50;;;7.80;;
27666;SDS011;15074;50.940;5.282;2022-07-23T01:31:46;10.02;;;7.97;;
27666;SDS011;15074;50.940;5.282;2022-07-23T01:34:12;7.82;;;6.90;;
27666;SDS011;15074;50.940;5.282;2022-07-23T01:36:38;10.55;;;8.18;;
27666;SDS011;15074;50.940;5.282;2022-07-23T01:39:04;8.30;;;7.50;;
27666;SDS011;15074;50.940;5.282;2022-07-23T01:41:31;8.98;;;8.18;;
27666;SDS011;15074;50.940;5.282;2022-07-23T01:43:57;9.23;;;8.27;;
27666;SDS011;15074;50.940;5.282;2022-07-23T01:46:22;8.98;;;7.97;;
27666;SDS011;15074;50.940;5.282;2022-07-23T01:48:48;7.35;;;6.72;;
27666;SDS011;15074;50.940;5.282;2022-07-23T01:51:14;8.73;;;7.75;;
27666;SDS011;15074;50.940;5.282;2022-07-23T01:53:39;10.75;;;8.18;;
27666;SDS011;15074;50.940;5.282;2022-07-23T01:56:05;8.65;;;7.85;;
27666;SDS011;15074;50.940;5.282;2022-07-23T01:58:31;7.78;;;7.15;;
27666;SDS011;15074;50.940;5.282;2022-07-23T02:00:57;8.13;;;7.32;;
27666;SDS011;15074;50.940;5.282;2022-07-23T02:03:23;9.50;;;7.85;;
27666;SDS011;15074;50.940;5.282;2022-07-23T02:05:49;11.50;;;8.38;;
27666;SDS011;15074;50.940;5.282;2022-07-23T02:08:14;10.32;;;8.00;;
27666;SDS011;15074;50.940;5.282;2022-07-23T02:10:40;9.63;;;7.45;;
27666;SDS011;15074;50.940;5.282;2022-07-23T02:13:06;9.07;;;8.18;;
27666;SDS011;15074;50.940;5.282;2022-07-23T02:15:32;8.95;;;8.05;;
27666;SDS011;15074;50.940;5.282;2022-07-23T02:17:58;10.77;;;8.13;;
27666;SDS011;15074;50.940;5.282;2022-07-23T02:20:24;9.13;;;8.00;;
27666;SDS011;15074;50.940;5.282;2022-07-23T02:22:50;8.95;;;8.25;;
27666;SDS011;15074;50.940;5.282;2022-07-23T02:25:16;9.05;;;8.15;;
27666;SDS011;15074;50.940;5.282;2022-07-23T02:27:41;9.60;;;8.70;;
27666;SDS011;15074;50.940;5.282;2022-07-23T02:30:07;9.40;;;8.48;;
27666;SDS011;15074;50.940;5.282;2022-07-23T02:32:33;8.68;;;7.97;;
27666;SDS011;15074;50.940;5.282;2022-07-23T02:35:00;13.23;;;8.90;;
27666;SDS011;15074;50.940;5.282;2022-07-23T02:37:26;9.27;;;8.48;;
27666;SDS011;15074;50.940;5.282;2022-07-23T02:39:52;9.57;;;8.68;;
27666;SDS011;15074;50.940;5.282;2022-07-23T02:42:18;9.88;;;8.88;;
27666;SDS011;15074;50.940;5.282;2022-07-23T02:44:43;13.77;;;8.05;;
27666;SDS011;15074;50.940;5.282;2022-07-23T02:47:09;9.55;;;8.60;;
27666;SDS011;15074;50.940;5.282;2022-07-23T02:49:34;9.68;;;8.68;;
27666;SDS011;15074;50.940;5.282;2022-07-23T02:52:00;9.15;;;8.25;;
27666;SDS011;15074;50.940;5.282;2022-07-23T02:54:26;10.18;;;9.25;;
27666;SDS011;15074;50.940;5.282;2022-07-23T02:56:52;9.88;;;7.80;;
27666;SDS011;15074;50.940;5.282;2022-07-23T02:59:18;8.57;;;7.45;;
27666;SDS011;15074;50.940;5.282;2022-07-23T03:01:44;8.27;;;7.50;;
27666;SDS011;15074;50.940;5.282;2022-07-23T03:04:10;10.60;;;8.02;;
27666;SDS011;15074;50.940;5.282;2022-07-23T03:06:36;9.60;;;8.27;;
27666;SDS011;15074;50.940;5.282;2022-07-23T03:09:02;8.95;;;7.65;;
27666;SDS011;15074;50.940;5.282;2022-07-23T03:11:29;8.35;;;6.60;;
27666;SDS011;15074;50.940;5.282;2022-07-23T03:13:54;6.75;;;5.78;;
27666;SDS011;15074;50.940;5.282;2022-07-23T03:16:20;8.60;;;7.90;;
27666;SDS011;15074;50.940;5.282;2022-07-23T03:18:46;9.25;;;8.40;;
27666;SDS011;15074;50.940;5.282;2022-07-23T03:21:11;9.02;;;8.23;;
27666;SDS011;15074;50.940;5.282;2022-07-23T03:23:37;9.80;;;8.38;;
27666;SDS011;15074;50.940;5.282;2022-07-23T03:26:03;8.18;;;7.25;;
27666;SDS011;15074;50.940;5.282;2022-07-23T03:28:29;12.15;;;7.63;;
27666;SDS011;15074;50.940;5.282;2022-07-23T03:30:55;8.45;;;7.65;;
27666;SDS011;15074;50.940;5.282;2022-07-23T03:33:21;8.10;;;7.07;;
27666;SDS011;15074;50.940;5.282;2022-07-23T03:35:47;8.50;;;7.70;;
27666;SDS011;15074;50.940;5.282;2022-07-23T03:38:13;8.38;;;7.65;;
27666;SDS011;15074;50.940;5.282;2022-07-23T03:40:39;12.20;;;8.20;;
27666;SDS011;15074;50.940;5.282;2022-07-23T03:43:05;7.18;;;6.57;;
27666;SDS011;15074;50.940;5.282;2022-07-23T03:45:30;7.65;;;6.95;;
27666;SDS011;15074;50.940;5.282;2022-07-23T03:47:57;6.97;;;6.32;;
27666;SDS011;15074;50.940;5.282;2022-07-23T03:50:23;8.52;;;6.90;;
27666;SDS011;15074;50.940;5.282;2022-07-23T03:52:49;7.55;;;6.95;;
27666;SDS011;15074;50.940;5.282;2022-07-23T03:55:15;7.60;;;6.90;;
27666;SDS011;15074;50.940;5.282;2022-07-23T03:57:40;7.68;;;6.97;;
27666;SDS011;15074;50.940;5.282;2022-07-23T04:00:07;7.30;;;6.15;;
27666;SDS011;15074;50.940;5.282;2022-07-23T04:02:34;6.93;;;6.28;;
27666;SDS011;15074;50.940;5.282;2022-07-23T04:05:00;8.50;;;7.47;;
27666;SDS011;15074;50.940;5.282;2022-07-23T04:07:26;8.38;;;7.57;;
27666;SDS011;15074;50.940;5.282;2022-07-23T04:09:52;7.57;;;6.80;;
27666;SDS011;15074;50.940;5.282;2022-07-23T04:12:18;8.48;;;7.68;;
27666;SDS011;15074;50.940;5.282;2022-07-23T04:14:44;9.15;;;8.40;;
27666;SDS011;15074;50.940;5.282;2022-07-23T04:17:10;10.13;;;8.65;;
27666;SDS011;15074;50.940;5.282;2022-07-23T04:19:36;7.30;;;6.68;;
27666;SDS011;15074;50.940;5.282;2022-07-23T04:22:05;8.85;;;7.65;;
27666;SDS011;15074;50.940;5.282;2022-07-23T04:24:31;7.50;;;6.90;;
27666;SDS011;15074;50.940;5.282;2022-07-23T04:26:57;7.57;;;6.80;;
27666;SDS011;15074;50.940;5.282;2022-07-23T04:29:23;7.38;;;6.68;;
27666;SDS011;15074;50.940;5.282;2022-07-23T04:31:48;8.20;;;7.25;;
27666;SDS011;15074;50.940;5.282;2022-07-23T04:34:14;7.15;;;6.55;;
27666;SDS011;15074;50.940;5.282;2022-07-23T04:36:39;8.25;;;6.70;;
27666;SDS011;15074;50.940;5.282;2022-07-23T04:39:05;7.45;;;6.75;;
27666;SDS011;15074;50.940;5.282;2022-07-23T04:41:31;6.20;;;5.70;;
27666;SDS011;15074;50.940;5.282;2022-07-23T04:43:57;8.13;;;7.45;;
27666;SDS011;15074;50.940;5.282;2022-07-23T04:46:22;7.30;;;6.70;;
27666;SDS011;15074;50.940;5.282;2022-07-23T04:48:48;9.88;;;7.88;;
27666;SDS011;15074;50.940;5.282;2022-07-23T04:51:14;8.50;;;7.63;;
27666;SDS011;15074;50.940;5.282;2022-07-23T04:53:40;8.68;;;6.75;;
27666;SDS011;15074;50.940;5.282;2022-07-23T04:56:05;8.60;;;7.05;;
27666;SDS011;15074;50.940;5.282;2022-07-23T04:58:31;7.75;;;6.75;;
27666;SDS011;15074;50.940;5.282;2022-07-23T05:00:57;9.00;;;6.40;;
27666;SDS011;15074;50.940;5.282;2022-07-23T05:03:23;7.20;;;6.07;;
27666;SDS011;15074;50.940;5.282;2022-07-23T05:05:49;9.55;;;6.13;;
27666;SDS011;15074;50.940;5.282;2022-07-23T05:08:14;6.30;;;5.70;;
27666;SDS011;15074;50.940;5.282;2022-07-23T05:10:40;6.60;;;6.00;;
27666;SDS011;15074;50.940;5.282;2022-07-23T05:13:06;7.45;;;5.65;;
27666;SDS011;15074;50.940;5.282;2022-07-23T05:15:32;6.15;;;5.65;;
27666;SDS011;15074;50.940;5.282;2022-07-23T05:17:57;6.90;;;6.20;;
27666;SDS011;15074;50.940;5.282;2022-07-23T05:20:23;10.40;;;6.78;;
27666;SDS011;15074;50.940;5.282;2022-07-23T05:22:49;6.55;;;5.95;;
27666;SDS011;15074;50.940;5.282;2022-07-23T05:25:14;6.20;;;5.65;;
27666;SDS011;15074;50.940;5.282;2022-07-23T05:27:40;6.68;;;6.05;;
27666;SDS011;15074;50.940;5.282;2022-07-23T05:30:06;6.18;;;5.68;;
27666;SDS011;15074;50.940;5.282;2022-07-23T05:32:32;7.10;;;6.50;;
27666;SDS011;15074;50.940;5.282;2022-07-23T05:34:57;6.10;;;5.60;;
27666;SDS011;15074;50.940;5.282;2022-07-23T05:37:23;6.20;;;5.60;;
27666;SDS011;15074;50.940;5.282;2022-07-23T05:39:49;7.40;;;5.70;;
27666;SDS011;15074;50.940;5.282;2022-07-23T05:42:14;7.40;;;5.75;;
27666;SDS011;15074;50.940;5.282;2022-07-23T05:44:40;6.63;;;6.03;;
27666;SDS011;15074;50.940;5.282;2022-07-23T05:47:06;6.53;;;6.03;;
27666;SDS011;15074;50.940;5.282;2022-07-23T05:49:31;6.57;;;6.07;;
27666;SDS011;15074;50.940;5.282;2022-07-23T05:51:57;6.95;;;6.32;;
27666;SDS011;15074;50.940;5.282;2022-07-23T05:54:22;6.03;;;5.57;;
27666;SDS011;15074;50.940;5.282;2022-07-23T05:56:48;7.88;;;7.07;;
27666;SDS011;15074;50.940;5.282;2022-07-23T05:59:15;5.78;;;5.38;;
27666;SDS011;15074;50.940;5.282;2022-07-23T06:01:40;6.07;;;5.47;;
27666;SDS011;15074;50.940;5.282;2022-07-23T06:04:06;7.00;;;6.38;;
27666;SDS011;15074;50.940;5.282;2022-07-23T06:06:32;6.53;;;5.90;;
27666;SDS011;15074;50.940;5.282;2022-07-23T06:08:58;6.43;;;5.93;;
27666;SDS011;15074;50.940;5.282;2022-07-23T06:11:24;6.68;;;6.10;;
27666;SDS011;15074;50.940;5.282;2022-07-23T06:13:49;6.45;;;5.85;;
27666;SDS011;15074;50.940;5.282;2022-07-23T06:16:15;6.78;;;6.20;;
27666;SDS011;15074;50.940;5.282;2022-07-23T06:18:40;6.78;;;6.22;;
27666;SDS011;15074;50.940;5.282;2022-07-23T06:21:06;6.28;;;5.88;;
27666;SDS011;15074;50.940;5.282;2022-07-23T06:23:32;6.82;;;6.22;;
27666;SDS011;15074;50.940;5.282;2022-07-23T06:25:57;6.35;;;5.78;;
27666;SDS011;15074;50.940;5.282;2022-07-23T06:28:23;6.13;;;5.63;;
27666;SDS011;15074;50.940;5.282;2022-07-23T06:30:49;7.80;;;5.55;;
27666;SDS011;15074;50.940;5.282;2022-07-23T06:33:14;7.00;;;6.43;;
27666;SDS011;15074;50.940;5.282;2022-07-23T06:35:40;6.80;;;6.30;;
27666;SDS011;15074;50.940;5.282;2022-07-23T06:38:05;6.25;;;5.65;;
27666;SDS011;15074;50.940;5.282;2022-07-23T06:40:31;6.28;;;5.78;;
27666;SDS011;15074;50.940;5.282;2022-07-23T06:42:57;6.25;;;5.80;;
27666;SDS011;15074;50.940;5.282;2022-07-23T06:45:22;5.93;;;5.53;;
27666;SDS011;15074;50.940;5.282;2022-07-23T06:47:48;6.35;;;5.95;;
27666;SDS011;15074;50.940;5.282;2022-07-23T06:50:14;6.32;;;5.75;;
27666;SDS011;15074;50.940;5.282;2022-07-23T06:52:40;6.03;;;5.60;;
27666;SDS011;15074;50.940;5.282;2022-07-23T06:55:06;6.65;;;6.07;;
27666;SDS011;15074;50.940;5.282;2022-07-23T06:57:31;6.07;;;5.57;;
27666;SDS011;15074;50.940;5.282;2022-07-23T06:59:57;6.43;;;5.88;;
27666;SDS011;15074;50.940;5.282;2022-07-23T07:02:23;6.40;;;6.00;;
27666;SDS011;15074;50.940;5.282;2022-07-23T07:04:49;6.43;;;5.93;;
27666;SDS011;15074;50.940;5.282;2022-07-23T07:07:14;6.03;;;5.63;;
27666;SDS011;15074;50.940;5.282;2022-07-23T07:09:40;6.63;;;6.03;;
27666;SDS011;15074;50.940;5.282;2022-07-23T07:12:06;6.63;;;6.03;;
27666;SDS011;15074;50.940;5.282;2022-07-23T07:14:31;6.80;;;6.30;;
27666;SDS011;15074;50.940;5.282;2022-07-23T07:16:57;7.03;;;6.32;;
27666;SDS011;15074;50.940;5.282;2022-07-23T07:19:23;7.60;;;6.90;;
27666;SDS011;15074;50.940;5.282;2022-07-23T07:21:48;7.00;;;6.50;;
27666;SDS011;15074;50.940;5.282;2022-07-23T07:24:14;7.53;;;6.95;;
27666;SDS011;15074;50.940;5.282;2022-07-23T07:26:39;7.68;;;7.07;;
27666;SDS011;15074;50.940;5.282;2022-07-23T07:29:05;7.50;;;6.95;;
27666;SDS011;15074;50.940;5.282;2022-07-23T07:31:31;6.68;;;6.28;;
27666;SDS011;15074;50.940;5.282;2022-07-23T07:33:57;7.38;;;6.78;;
27666;SDS011;15074;50.940;5.282;2022-07-23T07:36:23;7.40;;;6.80;;
27666;SDS011;15074;50.940;5.282;2022-07-23T07:38:49;7.88;;;7.15;;
27666;SDS011;15074;50.940;5.282;2022-07-23T07:41:16;7.70;;;7.00;;
27666;SDS011;15074;50.940;5.282;2022-07-23T07:43:47;7.30;;;6.80;;
27666;SDS011;15074;50.940;5.282;2022-07-23T07:46:13;6.82;;;6.32;;
27666;SDS011;15074;50.940;5.282;2022-07-23T07:48:38;7.85;;;7.22;;
27666;SDS011;15074;50.940;5.282;2022-07-23T07:51:04;7.53;;;6.93;;
27666;SDS011;15074;50.940;5.282;2022-07-23T07:53:30;7.13;;;6.53;;
27666;SDS011;15074;50.940;5.282;2022-07-23T07:55:56;6.85;;;6.25;;
27666;SDS011;15074;50.940;5.282;2022-07-23T07:58:22;6.43;;;5.93;;
27666;SDS011;15074;50.940;5.282;2022-07-23T08:00:47;6.43;;;5.40;;
27666;SDS011;15074;50.940;5.282;2022-07-23T08:03:13;5.10;;;4.70;;
27666;SDS011;15074;50.940;5.282;2022-07-23T08:05:39;4.97;;;4.57;;
27666;SDS011;15074;50.940;5.282;2022-07-23T08:08:04;4.97;;;4.57;;
27666;SDS011;15074;50.940;5.282;2022-07-23T08:10:30;5.18;;;4.68;;
27666;SDS011;15074;50.940;5.282;2022-07-23T08:12:57;5.80;;;5.30;;
27666;SDS011;15074;50.940;5.282;2022-07-23T08:15:24;4.80;;;4.30;;
27666;SDS011;15074;50.940;5.282;2022-07-23T08:17:52;4.60;;;4.20;;
27666;SDS011;15074;50.940;5.282;2022-07-23T08:20:19;5.27;;;4.77;;
27666;SDS011;15074;50.940;5.282;2022-07-23T08:25:11;5.17;;;4.77;;
27666;SDS011;15074;50.940;5.282;2022-07-23T08:27:37;5.00;;;4.45;;
27666;SDS011;15074;50.940;5.282;2022-07-23T08:30:03;5.35;;;4.82;;
27666;SDS011;15074;50.940;5.282;2022-07-23T08:32:29;5.47;;;4.80;;
27666;SDS011;15074;50.940;5.282;2022-07-23T08:34:55;4.45;;;4.05;;
27666;SDS011;15074;50.940;5.282;2022-07-23T08:37:20;5.05;;;4.57;;
27666;SDS011;15074;50.940;5.282;2022-07-23T08:39:46;5.38;;;4.47;;
27666;SDS011;15074;50.940;5.282;2022-07-23T08:42:12;4.30;;;3.90;;
27666;SDS011;15074;50.940;5.282;2022-07-23T08:44:40;4.15;;;3.58;;
27666;SDS011;15074;50.940;5.282;2022-07-23T08:47:10;4.90;;;4.50;;
27666;SDS011;15074;50.940;5.282;2022-07-23T08:49:36;4.93;;;4.53;;
27666;SDS011;15074;50.940;5.282;2022-07-23T08:52:03;4.60;;;4.20;;
27666;SDS011;15074;50.940;5.282;2022-07-23T08:54:29;4.95;;;4.28;;
27666;SDS011;15074;50.940;5.282;2022-07-23T08:56:59;4.80;;;4.40;;
27666;SDS011;15074;50.940;5.282;2022-07-23T08:59:25;5.07;;;4.50;;
27666;SDS011;15074;50.940;5.282;2022-07-23T09:01:51;5.20;;;4.63;;
27666;SDS011;15074;50.940;5.282;2022-07-23T09:04:17;4.38;;;3.97;;
27666;SDS011;15074;50.940;5.282;2022-07-23T09:06:42;4.25;;;3.85;;
27666;SDS011;15074;50.940;5.282;2022-07-23T09:09:18;4.97;;;3.80;;
27666;SDS011;15074;50.940;5.282;2022-07-23T09:11:48;4.82;;;3.70;;
27666;SDS011;15074;50.940;5.282;2022-07-23T09:14:38;4.75;;;4.30;;
27666;SDS011;15074;50.940;5.282;2022-07-23T09:17:16;5.05;;;3.67;;
27666;SDS011;15074;50.940;5.282;2022-07-23T09:19:44;4.28;;;3.70;;
27666;SDS011;15074;50.940;5.282;2022-07-23T09:22:26;3.80;;;3.50;;
27666;SDS011;15074;50.940;5.282;2022-07-23T09:25:02;4.90;;;3.58;;
27666;SDS011;15074;50.940;5.282;2022-07-23T09:30:24;3.35;;;2.95;;
27666;SDS011;15074;50.940;5.282;2022-07-23T09:33:11;3.53;;;3.22;;
27666;SDS011;15074;50.940;5.282;2022-07-23T09:35:50;4.20;;;3.80;;
27666;SDS011;15074;50.940;5.282;2022-07-23T09:38:18;4.65;;;4.15;;
27666;SDS011;15074;50.940;5.282;2022-07-23T09:40:45;4.13;;;3.83;;
27666;SDS011;15074;50.940;5.282;2022-07-23T09:43:13;3.65;;;3.35;;
27666;SDS011;15074;50.940;5.282;2022-07-23T09:45:52;3.45;;;3.15;;
27666;SDS011;15074;50.940;5.282;2022-07-23T09:48:18;3.78;;;3.47;;
27666;SDS011;15074;50.940;5.282;2022-07-23T09:50:44;3.55;;;3.00;;
27666;SDS011;15074;50.940;5.282;2022-07-23T09:53:11;2.90;;;2.20;;
27666;SDS011;15074;50.940;5.282;2022-07-23T09:55:50;3.30;;;2.95;;
27666;SDS011;15074;50.940;5.282;2022-07-23T09:58:17;2.80;;;2.42;;
27666;SDS011;15074;50.940;5.282;2022-07-23T10:00:47;2.90;;;2.53;;
27666;SDS011;15074;50.940;5.282;2022-07-23T10:03:14;2.95;;;2.20;;
27666;SDS011;15074;50.940;5.282;2022-07-23T10:05:40;3.37;;;3.07;;
27666;SDS011;15074;50.940;5.282;2022-07-23T10:08:08;3.90;;;3.00;;
27666;SDS011;15074;50.940;5.282;2022-07-23T10:10:37;3.60;;;3.30;;
27666;SDS011;15074;50.940;5.282;2022-07-23T10:13:05;3.17;;;2.67;;
27666;SDS011;15074;50.940;5.282;2022-07-23T10:15:49;3.42;;;3.10;;
27666;SDS011;15074;50.940;5.282;2022-07-23T10:18:16;2.10;;;1.90;;
27666;SDS011;15074;50.940;5.282;2022-07-23T10:20:42;2.03;;;1.83;;
27666;SDS011;15074;50.940;5.282;2022-07-23T10:23:14;1.50;;;1.40;;
27666;SDS011;15074;50.940;5.282;2022-07-23T10:26:05;2.33;;;1.60;;
27666;SDS011;15074;50.940;5.282;2022-07-23T10:39:18;4.28;;;1.25;;
27666;SDS011;15074;50.940;5.282;2022-07-23T10:41:47;1.58;;;1.42;;
27666;SDS011;15074;50.940;5.282;2022-07-23T10:44:14;1.48;;;1.23;;
27666;SDS011;15074;50.940;5.282;2022-07-23T10:49:40;3.83;;;1.63;;
27666;SDS011;15074;50.940;5.282;2022-07-23T10:52:22;2.67;;;1.38;;
27666;SDS011;15074;50.940;5.282;2022-07-23T10:54:50;1.35;;;1.10;;
27666;SDS011;15074;50.940;5.282;2022-07-23T10:57:28;1.50;;;1.40;;
27666;SDS011;15074;50.940;5.282;2022-07-23T11:02:47;0.80;;;0.70;;
27666;SDS011;15074;50.940;5.282;2022-07-23T11:05:16;1.38;;;0.80;;
27666;SDS011;15074;50.940;5.282;2022-07-23T11:10:38;1.67;;;0.80;;
27666;SDS011;15074;50.940;5.282;2022-07-23T11:16:13;1.13;;;0.80;;
27666;SDS011;15074;50.940;5.282;2022-07-23T11:26:44;0.50;;;0.50;;
27666;SDS011;15074;50.940;5.282;2022-07-23T11:31:56;0.90;;;0.60;;
27666;SDS011;15074;50.940;5.282;2022-07-23T11:37:06;0.50;;;0.50;;
27666;SDS011;15074;50.940;5.282;2022-07-23T11:39:33;1.00;;;0.68;;
27666;SDS011;15074;50.940;5.282;2022-07-23T11:41:59;1.25;;;0.50;;
27666;SDS011;15074;50.940;5.282;2022-07-23T11:44:27;0.70;;;0.70;;
27666;SDS011;15074;50.940;5.282;2022-07-23T11:46:58;0.70;;;0.70;;
27666;SDS011;15074;50.940;5.282;2022-07-23T11:49:25;0.55;;;0.55;;
27666;SDS011;15074;50.940;5.282;2022-07-23T11:52:11;0.52;;;0.52;;
27666;SDS011;15074;50.940;5.282;2022-07-23T11:57:25;0.73;;;0.73;;
27666;SDS011;15074;50.940;5.282;2022-07-23T12:00:02;1.20;;;0.70;;
27666;SDS011;15074;50.940;5.282;2022-07-23T12:02:32;0.52;;;0.52;;
27666;SDS011;15074;50.940;5.282;2022-07-23T12:04:58;1.05;;;0.73;;
27666;SDS011;15074;50.940;5.282;2022-07-23T12:12:56;1.02;;;0.65;;
27666;SDS011;15074;50.940;5.282;2022-07-23T12:15:33;0.65;;;0.65;;
27666;SDS011;15074;50.940;5.282;2022-07-23T12:18:05;4.38;;;0.70;;
27666;SDS011;15074;50.940;5.282;2022-07-23T12:20:33;1.02;;;0.70;;
27666;SDS011;15074;50.940;5.282;2022-07-23T12:23:04;0.70;;;0.70;;
27666;SDS011;15074;50.940;5.282;2022-07-23T12:25:32;2.40;;;0.70;;
27666;SDS011;15074;50.940;5.282;2022-07-23T12:28:13;1.60;;;0.65;;
27666;SDS011;15074;50.940;5.282;2022-07-23T12:30:41;1.48;;;1.00;;
27666;SDS011;15074;50.940;5.282;2022-07-23T12:33:15;1.00;;;0.80;;
27666;SDS011;15074;50.940;5.282;2022-07-23T12:35:52;0.80;;;0.80;;
27666;SDS011;15074;50.940;5.282;2022-07-23T12:38:20;0.73;;;0.70;;
27666;SDS011;15074;50.940;5.282;2022-07-23T12:40:52;1.50;;;0.77;;
27666;SDS011;15074;50.940;5.282;2022-07-23T12:43:29;0.88;;;0.80;;
27666;SDS011;15074;50.940;5.282;2022-07-23T12:51:18;0.90;;;0.80;;
27666;SDS011;15074;50.940;5.282;2022-07-23T12:53:49;0.80;;;0.80;;
27666;SDS011;15074;50.940;5.282;2022-07-23T12:56:21;1.10;;;0.90;;
27666;SDS011;15074;50.940;5.282;2022-07-23T12:59:15;1.77;;;1.02;;
27666;SDS011;15074;50.940;5.282;2022-07-23T13:01:41;1.73;;;0.80;;
27666;SDS011;15074;50.940;5.282;2022-07-23T13:04:09;1.10;;;0.82;;
27666;SDS011;15074;50.940;5.282;2022-07-23T13:06:43;1.83;;;1.02;;
27666;SDS011;15074;50.940;5.282;2022-07-23T13:09:12;1.17;;;1.00;;
27666;SDS011;15074;50.940;5.282;2022-07-23T13:11:39;1.10;;;0.80;;
27666;SDS011;15074;50.940;5.282;2022-07-23T13:14:05;1.10;;;1.00;;
27666;SDS011;15074;50.940;5.282;2022-07-23T13:16:32;2.10;;;0.90;;
27666;SDS011;15074;50.940;5.282;2022-07-23T13:18:58;2.05;;;0.90;;
27666;SDS011;15074;50.940;5.282;2022-07-23T13:21:25;1.05;;;0.98;;
27666;SDS011;15074;50.940;5.282;2022-07-23T13:28:44;1.33;;;0.80;;
27666;SDS011;15074;50.940;5.282;2022-07-23T13:31:10;1.13;;;1.03;;
27666;SDS011;15074;50.940;5.282;2022-07-23T13:33:35;1.00;;;0.90;;
27666;SDS011;15074;50.940;5.282;2022-07-23T13:36:01;1.13;;;1.02;;
27666;SDS011;15074;50.940;5.282;2022-07-23T13:38:28;1.42;;;1.10;;
27666;SDS011;15074;50.940;5.282;2022-07-23T13:40:54;1.35;;;1.10;;
27666;SDS011;15074;50.940;5.282;2022-07-23T13:43:21;1.60;;;1.02;;
27666;SDS011;15074;50.940;5.282;2022-07-23T13:45:48;2.25;;;0.95;;
27666;SDS011;15074;50.940;5.282;2022-07-23T13:48:17;1.52;;;0.90;;
27666;SDS011;15074;50.940;5.282;2022-07-23T13:50:44;1.52;;;1.00;;
27666;SDS011;15074;50.940;5.282;2022-07-23T13:58:04;1.58;;;0.95;;
27666;SDS011;15074;50.940;5.282;2022-07-23T14:00:30;1.42;;;1.10;;
27666;SDS011;15074;50.940;5.282;2022-07-23T14:02:58;1.67;;;1.20;;
27666;SDS011;15074;50.940;5.282;2022-07-23T14:05:24;1.38;;;1.08;;
27666;SDS011;15074;50.940;5.282;2022-07-23T14:07:50;1.30;;;1.10;;
27666;SDS011;15074;50.940;5.282;2022-07-23T14:10:17;3.67;;;1.40;;
27666;SDS011;15074;50.940;5.282;2022-07-23T14:12:44;1.15;;;0.88;;
27666;SDS011;15074;50.940;5.282;2022-07-23T14:15:10;1.10;;;1.00;;
27666;SDS011;15074;50.940;5.282;2022-07-23T14:17:36;1.48;;;1.38;;
27666;SDS011;15074;50.940;5.282;2022-07-23T14:20:04;2.17;;;1.10;;
27666;SDS011;15074;50.940;5.282;2022-07-23T14:22:30;2.47;;;1.35;;
27666;SDS011;15074;50.940;5.282;2022-07-23T14:24:56;2.25;;;1.30;;
27666;SDS011;15074;50.940;5.282;2022-07-23T14:27:23;1.98;;;1.15;;
27666;SDS011;15074;50.940;5.282;2022-07-23T14:29:49;2.40;;;1.20;;
27666;SDS011;15074;50.940;5.282;2022-07-23T14:32:15;2.05;;;1.23;;
27666;SDS011;15074;50.940;5.282;2022-07-23T14:34:41;1.98;;;1.20;;
27666;SDS011;15074;50.940;5.282;2022-07-23T14:37:06;1.40;;;1.30;;
27666;SDS011;15074;50.940;5.282;2022-07-23T14:39:32;1.63;;;1.40;;
27666;SDS011;15074;50.940;5.282;2022-07-23T14:41:58;2.13;;;1.35;;
27666;SDS011;15074;50.940;5.282;2022-07-23T14:44:23;1.95;;;1.42;;
27666;SDS011;15074;50.940;5.282;2022-07-23T14:46:49;1.45;;;1.30;;
27666;SDS011;15074;50.940;5.282;2022-07-23T14:49:15;1.70;;;1.30;;
27666;SDS011;15074;50.940;5.282;2022-07-23T14:51:40;2.08;;;1.23;;
27666;SDS011;15074;50.940;5.282;2022-07-23T14:54:07;2.07;;;1.60;;
27666;SDS011;15074;50.940;5.282;2022-07-23T14:56:33;1.88;;;1.40;;
27666;SDS011;15074;50.940;5.282;2022-07-23T14:59:01;1.75;;;1.40;;
27666;SDS011;15074;50.940;5.282;2022-07-23T15:01:27;1.70;;;1.60;;
27666;SDS011;15074;50.940;5.282;2022-07-23T15:03:52;2.00;;;1.73;;
27666;SDS011;15074;50.940;5.282;2022-07-23T15:06:18;1.60;;;1.50;;
27666;SDS011;15074;50.940;5.282;2022-07-23T15:08:43;1.85;;;1.65;;
27666;SDS011;15074;50.940;5.282;2022-07-23T15:11:09;1.73;;;1.60;;
27666;SDS011;15074;50.940;5.282;2022-07-23T15:13:35;1.85;;;1.65;;
27666;SDS011;15074;50.940;5.282;2022-07-23T15:16:02;1.73;;;1.43;;
27666;SDS011;15074;50.940;5.282;2022-07-23T15:20:54;1.73;;;1.60;;
27666;SDS011;15074;50.940;5.282;2022-07-23T15:23:20;2.05;;;1.80;;
27666;SDS011;15074;50.940;5.282;2022-07-23T15:25:46;2.17;;;2.00;;
27666;SDS011;15074;50.940;5.282;2022-07-23T15:28:11;2.35;;;1.70;;
27666;SDS011;15074;50.940;5.282;2022-07-23T15:30:37;1.77;;;1.60;;
27666;SDS011;15074;50.940;5.282;2022-07-23T15:33:03;1.92;;;1.77;;
27666;SDS011;15074;50.940;5.282;2022-07-23T15:35:30;1.98;;;1.52;;
27666;SDS011;15074;50.940;5.282;2022-07-23T15:37:56;2.70;;;1.85;;
27666;SDS011;15074;50.940;5.282;2022-07-23T15:40:22;2.40;;;2.22;;
27666;SDS011;15074;50.940;5.282;2022-07-23T15:42:48;2.00;;;1.80;;
27666;SDS011;15074;50.940;5.282;2022-07-23T15:45:14;2.03;;;1.80;;
27666;SDS011;15074;50.940;5.282;2022-07-23T15:47:40;2.03;;;1.87;;
27666;SDS011;15074;50.940;5.282;2022-07-23T15:50:08;1.80;;;1.65;;
27666;SDS011;15074;50.940;5.282;2022-07-23T15:52:34;2.13;;;1.60;;
27666;SDS011;15074;50.940;5.282;2022-07-23T15:55:00;2.03;;;1.52;;